createdAt,value
2022-08-23T00:00:43.613Z,7.03
2022-08-23T00:03:45.547Z,6.85
2022-08-23T00:06:49.465Z,6.78
2022-08-23T00:09:51.724Z,6.03
2022-08-23T00:12:53.586Z,5.55
2022-08-23T00:15:55.760Z,5.40
2022-08-23T00:18:57.986Z,5.57
2022-08-23T00:21:59.983Z,6.00
2022-08-23T00:25:01.961Z,5.82
2022-08-23T00:28:04.518Z,5.90
2022-08-23T00:31:15.873Z,5.93
2022-08-23T00:37:21.377Z,5.90
2022-08-23T00:43:53.471Z,5.72
2022-08-23T00:47:15.790Z,5.93
2022-08-23T00:50:37.954Z,6.97
2022-08-23T00:53:44.000Z,6.53
2022-08-23T00:56:46.418Z,6.50
2022-08-23T00:59:48.481Z,6.80
2022-08-23T01:02:51.257Z,5.90
2022-08-23T01:06:03.675Z,6.10
2022-08-23T01:09:12.095Z,6.68
2022-08-23T01:12:37.612Z,6.72
2022-08-23T01:15:46.059Z,7.00
2022-08-23T01:18:49.395Z,7.35
2022-08-23T01:25:11.090Z,6.88
2022-08-23T01:28:12.938Z,6.97
2022-08-23T01:31:16.421Z,6.55
2022-08-23T01:34:18.734Z,6.97
2022-08-23T01:37:22.084Z,7.13
2022-08-23T01:43:26.233Z,7.78
2022-08-23T01:46:28.149Z,7.78
2022-08-23T01:49:29.922Z,6.95
2022-08-23T01:52:31.715Z,6.38
2022-08-23T01:55:34.328Z,6.40
2022-08-23T01:58:37.101Z,6.87
2022-08-23T02:01:40.003Z,6.55
2022-08-23T02:04:41.917Z,5.95
2022-08-23T02:07:43.693Z,7.00
2022-08-23T02:10:45.454Z,7.05
2022-08-23T02:13:47.594Z,5.97
2022-08-23T02:17:03.887Z,6.47
2022-08-23T02:20:07.746Z,5.82
2022-08-23T02:23:09.659Z,5.68
2022-08-23T02:26:11.508Z,6.00
2022-08-23T02:29:14.998Z,5.82
2022-08-23T02:32:18.368Z,6.07
2022-08-23T02:38:21.855Z,5.90
2022-08-23T02:41:24.382Z,5.78
2022-08-23T02:44:26.143Z,5.77
2022-08-23T02:47:29.710Z,6.00
2022-08-23T02:50:31.709Z,5.17
2022-08-23T02:53:34.145Z,5.60
2022-08-23T02:56:36.667Z,5.40
2022-08-23T02:59:38.915Z,5.50
2022-08-23T03:02:41.258Z,5.03
2022-08-23T03:05:43.758Z,5.80
2022-08-23T03:08:45.726Z,5.63
2022-08-23T03:11:50.036Z,6.18
2022-08-23T03:14:52.194Z,6.22
2022-08-23T03:17:54.498Z,5.60
2022-08-23T03:20:56.257Z,5.00
2022-08-23T03:23:58.222Z,5.97
2022-08-23T03:27:00.060Z,4.97
2022-08-23T03:30:02.072Z,5.40
2022-08-23T03:33:04.525Z,5.65
2022-08-23T03:36:08.953Z,5.68
2022-08-23T03:39:10.841Z,5.70
2022-08-23T03:42:12.558Z,5.22
2022-08-23T03:45:14.287Z,5.28
2022-08-23T03:48:16.759Z,5.43
2022-08-23T03:51:20.206Z,5.30
2022-08-23T03:57:24.748Z,5.53
2022-08-23T04:00:26.612Z,5.50
2022-08-23T04:03:28.377Z,5.80
2022-08-23T04:06:33.091Z,5.45
2022-08-23T04:09:34.886Z,5.40
2022-08-23T04:12:36.634Z,6.15
2022-08-23T04:15:38.684Z,5.38
2022-08-23T04:18:42.606Z,5.75
2022-08-23T04:21:48.315Z,6.43
2022-08-23T04:24:50.355Z,6.40
2022-08-23T04:27:52.322Z,6.60
2022-08-23T04:30:54.180Z,5.70
2022-08-23T04:33:57.944Z,5.95
2022-08-23T04:37:03.034Z,5.38
2022-08-23T04:40:23.934Z,6.18
2022-08-23T04:43:25.863Z,5.75
2022-08-23T04:46:27.649Z,5.95
2022-08-23T04:49:29.588Z,6.00
2022-08-23T04:52:31.308Z,5.65
2022-08-23T04:55:34.349Z,5.55
2022-08-23T04:58:38.826Z,5.78
2022-08-23T05:01:41.453Z,5.72
2022-08-23T05:04:43.212Z,5.70
2022-08-23T05:07:45.419Z,5.32
2022-08-23T05:10:47.261Z,5.90
2022-08-23T05:13:49.405Z,5.32
2022-08-23T05:16:51.267Z,5.60
2022-08-23T05:19:53.202Z,5.07
2022-08-23T05:22:54.975Z,6.03
2022-08-23T05:25:57.082Z,5.60
2022-08-23T05:28:58.866Z,5.70
2022-08-23T05:32:00.603Z,5.53
2022-08-23T05:35:02.364Z,5.03
2022-08-23T05:38:04.614Z,5.05
2022-08-23T05:41:07.106Z,4.90
2022-08-23T05:44:10.502Z,5.80
2022-08-23T05:47:15.963Z,4.78
2022-08-23T05:50:17.984Z,4.93
2022-08-23T05:53:20.077Z,5.35
2022-08-23T05:56:26.992Z,5.47
2022-08-23T05:59:28.992Z,4.53
2022-08-23T06:02:30.955Z,5.18
2022-08-23T06:05:32.695Z,4.85
2022-08-23T06:08:35.501Z,4.97
2022-08-23T06:11:38.177Z,4.53
2022-08-23T06:14:39.954Z,4.87
2022-08-23T06:17:41.907Z,5.13
2022-08-23T06:20:43.699Z,4.82
2022-08-23T06:23:49.674Z,5.70
2022-08-23T06:26:51.533Z,10.13
2022-08-23T06:29:53.328Z,15.32
2022-08-23T06:32:55.558Z,15.85
2022-08-23T06:36:09.860Z,20.23
2022-08-23T06:39:12.429Z,15.35
2022-08-23T06:42:50.227Z,10.97
2022-08-23T06:45:39.141Z,49.92
2022-08-23T06:48:43.372Z,28.45
2022-08-23T06:51:50.510Z,26.05
2022-08-23T06:54:54.405Z,37.20
2022-08-23T06:57:56.154Z,55.80
2022-08-23T07:01:28.522Z,14.95
2022-08-23T07:04:38.528Z,4.72
2022-08-23T07:07:44.469Z,61.25
2022-08-23T07:10:46.772Z,5.28
2022-08-23T07:13:49.434Z,39.83
2022-08-23T07:16:59.964Z,46.03
2022-08-23T07:20:01.708Z,54.72
2022-08-23T07:23:03.455Z,129.10
2022-08-23T07:26:10.379Z,16.63
2022-08-23T07:29:14.360Z,105.72
2022-08-23T07:32:18.617Z,62.08
2022-08-23T07:35:21.692Z,178.95
2022-08-23T07:38:23.568Z,183.75
2022-08-23T07:41:33.141Z,83.90
2022-08-23T07:44:35.063Z,227.40
2022-08-23T07:47:36.906Z,63.15
2022-08-23T07:50:40.644Z,32.80
2022-08-23T07:53:56.723Z,16.27
2022-08-23T07:56:59.083Z,4.00
2022-08-23T08:00:00.813Z,7.80
2022-08-23T08:03:02.630Z,7.35
2022-08-23T08:06:13.309Z,36.80
2022-08-23T08:09:15.677Z,4.55
2022-08-23T08:12:17.833Z,5.63
2022-08-23T08:15:20.690Z,7.68
2022-08-23T08:18:22.438Z,8.13
2022-08-23T08:21:25.009Z,20.70
2022-08-23T08:24:26.774Z,3.67
2022-08-23T08:27:28.677Z,64.05
2022-08-23T08:30:30.766Z,12.48
2022-08-23T08:33:34.290Z,37.63
2022-08-23T08:36:38.384Z,47.55
2022-08-23T08:39:46.916Z,5.97
2022-08-23T08:43:26.680Z,3.13
2022-08-23T08:46:45.657Z,49.45
2022-08-23T08:50:05.623Z,30.58
2022-08-23T08:53:16.323Z,18.48
2022-08-23T08:56:32.337Z,3.30
2022-08-23T08:59:55.052Z,2.63
2022-08-23T09:02:59.513Z,3.67
2022-08-23T09:06:25.661Z,3.10
2022-08-23T09:10:05.157Z,2.72
2022-08-23T09:13:24.745Z,12.63
2022-08-23T09:16:50.896Z,8.15
2022-08-23T09:19:57.662Z,3.30
2022-08-23T09:23:13.073Z,2.35
2022-08-23T09:26:32.713Z,9.90
2022-08-23T09:29:36.942Z,2.70
2022-08-23T09:32:44.063Z,2.00
2022-08-23T09:36:08.443Z,2.35
2022-08-23T09:39:31.181Z,1.95
2022-08-23T09:42:37.242Z,2.57
2022-08-23T09:45:42.322Z,1.92
2022-08-23T09:48:46.816Z,2.00
2022-08-23T09:51:50.255Z,2.15
2022-08-23T09:54:57.951Z,1.88
2022-08-23T09:58:07.112Z,1.58
2022-08-23T10:01:25.869Z,1.77
2022-08-23T10:04:33.596Z,1.70
2022-08-23T10:07:38.699Z,1.98
2022-08-23T10:10:54.701Z,2.05
2022-08-23T10:13:56.852Z,2.00
2022-08-23T10:17:21.778Z,1.80
2022-08-23T10:24:02.013Z,2.28
2022-08-23T10:28:04.581Z,1.80
2022-08-23T10:31:25.554Z,1.55
2022-08-23T10:34:53.589Z,1.67
2022-08-23T10:38:13.459Z,1.67
2022-08-23T10:41:49.605Z,1.63
2022-08-23T10:45:04.059Z,1.55
2022-08-23T10:48:05.727Z,1.83
2022-08-23T10:51:40.395Z,1.42
2022-08-23T10:55:00.950Z,1.60
2022-08-23T10:58:06.913Z,1.90
2022-08-23T11:01:12.868Z,1.75
2022-08-23T11:04:36.607Z,1.67
2022-08-23T11:10:56.387Z,1.10
2022-08-23T11:13:59.726Z,1.50
2022-08-23T11:17:07.810Z,1.58
2022-08-23T11:20:12.609Z,1.77
2022-08-23T11:23:34.079Z,1.55
2022-08-23T11:26:40.173Z,1.48
2022-08-23T11:29:43.539Z,1.42
2022-08-23T11:32:46.724Z,1.40
2022-08-23T11:35:55.217Z,1.10
2022-08-23T11:38:56.972Z,1.40
2022-08-23T11:42:00.200Z,1.48
2022-08-23T11:48:43.580Z,1.10
2022-08-23T11:52:04.568Z,1.48
2022-08-23T11:55:15.480Z,1.30
2022-08-23T11:58:43.566Z,1.88
2022-08-23T12:01:47.269Z,1.58
2022-08-23T12:04:53.396Z,1.40
2022-08-23T12:08:23.016Z,1.48
2022-08-23T12:11:26.013Z,1.35
2022-08-23T12:14:56.916Z,1.30
2022-08-23T12:18:12.131Z,1.10
2022-08-23T12:21:28.156Z,1.30
2022-08-23T12:24:34.013Z,1.33
2022-08-23T12:27:38.653Z,1.38
2022-08-23T12:30:59.939Z,1.55
2022-08-23T12:34:21.092Z,1.33
2022-08-23T12:37:25.668Z,1.20
2022-08-23T12:40:37.624Z,1.30
2022-08-23T12:43:55.744Z,1.40
2022-08-23T12:47:08.892Z,1.30
2022-08-23T12:50:13.582Z,1.67
2022-08-23T12:53:25.550Z,1.17
2022-08-23T12:56:32.127Z,1.30
2022-08-23T12:59:47.514Z,1.23
2022-08-23T13:03:17.989Z,1.00
2022-08-23T13:06:24.719Z,1.20
2022-08-23T13:09:29.558Z,1.48
2022-08-23T13:12:31.335Z,1.10
2022-08-23T13:15:44.842Z,1.42
2022-08-23T13:18:46.866Z,1.50
2022-08-23T13:22:08.317Z,1.30
2022-08-23T13:25:32.119Z,1.17
2022-08-23T13:28:34.603Z,1.15
2022-08-23T13:32:04.117Z,1.00
2022-08-23T13:35:26.636Z,1.08
2022-08-23T13:38:32.979Z,1.10
2022-08-23T13:41:39.166Z,1.10
2022-08-23T13:44:43.108Z,1.10
2022-08-23T13:47:50.829Z,1.00
2022-08-23T13:50:53.717Z,1.35
2022-08-23T13:53:57.135Z,1.08
2022-08-23T13:57:06.173Z,1.20
2022-08-23T14:00:10.771Z,1.10
2022-08-23T14:03:12.765Z,1.30
2022-08-23T14:06:14.816Z,0.98
2022-08-23T14:09:17.203Z,1.00
2022-08-23T14:12:22.941Z,1.20
2022-08-23T14:15:54.593Z,0.68
2022-08-23T14:22:08.413Z,1.05
2022-08-23T14:25:12.490Z,1.05
2022-08-23T14:28:14.451Z,1.08
2022-08-23T14:31:16.436Z,1.02
2022-08-23T14:34:19.519Z,0.90
2022-08-23T14:38:02.507Z,1.02
2022-08-23T14:40:53.008Z,1.25
2022-08-23T14:43:55.352Z,1.02
2022-08-23T14:46:57.078Z,0.93
2022-08-23T14:49:58.849Z,0.68
2022-08-23T14:53:03.747Z,0.60
2022-08-23T14:56:20.359Z,0.88
2022-08-23T14:59:23.057Z,0.60
2022-08-23T15:02:26.798Z,0.75
2022-08-23T15:05:28.662Z,0.65
2022-08-23T15:08:30.666Z,0.70
2022-08-23T15:14:57.055Z,0.45
2022-08-23T15:18:03.753Z,0.40
2022-08-23T15:21:06.275Z,0.45
2022-08-23T15:24:08.087Z,0.60
2022-08-23T15:27:10.300Z,0.80
2022-08-23T15:30:14.982Z,0.57
2022-08-23T15:33:17.558Z,0.50
2022-08-23T15:36:20.923Z,0.90
2022-08-23T15:39:23.963Z,0.50
2022-08-23T15:45:27.940Z,0.30
2022-08-23T15:48:35.498Z,0.60
2022-08-23T15:51:37.776Z,0.50
2022-08-23T15:54:42.117Z,0.40
2022-08-23T15:57:54.421Z,0.50
2022-08-23T16:00:56.339Z,0.50
2022-08-23T16:03:58.130Z,0.40
2022-08-23T16:07:00.715Z,0.50
2022-08-23T16:10:06.575Z,0.63
2022-08-23T16:13:08.285Z,0.40
2022-08-23T16:16:20.845Z,0.30
2022-08-23T16:19:22.919Z,0.47
2022-08-23T16:22:25.486Z,0.40
2022-08-23T16:25:27.269Z,0.38
2022-08-23T16:28:29.018Z,0.50
2022-08-23T16:31:37.658Z,0.55
2022-08-23T16:34:41.201Z,0.60
2022-08-23T16:37:42.919Z,0.57
2022-08-23T16:40:44.645Z,1.10
2022-08-23T16:43:48.316Z,0.40
2022-08-23T16:46:51.692Z,0.60
2022-08-23T16:49:54.072Z,0.40
2022-08-23T16:52:55.904Z,0.30
2022-08-23T16:55:57.675Z,0.40
2022-08-23T16:58:59.665Z,0.40
2022-08-23T17:02:10.483Z,0.40
2022-08-23T17:05:16.223Z,0.40
2022-08-23T17:08:18.224Z,0.40
2022-08-23T17:11:20.157Z,0.60
2022-08-23T17:14:24.093Z,0.47
2022-08-23T17:17:26.129Z,0.50
2022-08-23T17:20:30.716Z,0.50
2022-08-23T17:23:33.110Z,0.50
2022-08-23T17:26:39.600Z,0.50
2022-08-23T17:29:41.732Z,0.73
2022-08-23T17:32:44.345Z,0.50
2022-08-23T17:35:46.427Z,0.70
2022-08-23T17:38:48.257Z,0.45
2022-08-23T17:41:50.360Z,0.70
2022-08-23T17:44:52.241Z,0.52
2022-08-23T17:47:54.188Z,0.50
2022-08-23T17:50:55.888Z,0.60
2022-08-23T17:53:57.729Z,0.50
2022-08-23T17:57:00.699Z,0.60
2022-08-23T18:00:03.426Z,0.57
2022-08-23T18:03:06.422Z,0.90
2022-08-23T18:06:16.489Z,0.70
2022-08-23T18:09:19.852Z,0.93
2022-08-23T18:12:23.158Z,0.43
2022-08-23T18:15:26.093Z,0.65
2022-08-23T18:18:29.239Z,0.80
2022-08-23T18:21:31.311Z,0.80
2022-08-23T18:24:33.251Z,0.50
2022-08-23T18:27:53.742Z,0.80
2022-08-23T18:30:56.325Z,0.80
2022-08-23T18:34:00.607Z,0.63
2022-08-23T18:37:03.273Z,0.70
2022-08-23T18:40:09.636Z,0.60
2022-08-23T18:43:26.937Z,0.50
2022-08-23T18:46:40.882Z,0.70
2022-08-23T18:49:42.902Z,0.75
2022-08-23T18:52:44.692Z,0.77
2022-08-23T18:55:46.803Z,0.60
2022-08-23T18:58:48.983Z,0.70
2022-08-23T19:01:51.227Z,1.13
2022-08-23T19:04:53.309Z,0.93
2022-08-23T19:07:55.504Z,0.80
2022-08-23T19:10:57.255Z,0.93
2022-08-23T19:14:00.237Z,0.80
2022-08-23T19:17:04.215Z,1.05
2022-08-23T19:20:08.044Z,1.15
2022-08-23T19:23:09.772Z,1.83
2022-08-23T19:26:13.072Z,1.17
2022-08-23T19:29:18.365Z,1.30
2022-08-23T19:32:21.199Z,1.00
2022-08-23T19:35:22.997Z,1.33
2022-08-23T19:38:27.699Z,1.10
2022-08-23T19:41:31.139Z,1.10
2022-08-23T19:44:34.636Z,1.10
2022-08-23T19:47:36.385Z,0.98
2022-08-23T19:50:41.125Z,1.30
2022-08-23T19:54:03.347Z,1.33
2022-08-23T19:57:08.150Z,1.90
2022-08-23T20:00:19.381Z,1.90
2022-08-23T20:03:21.800Z,1.60
2022-08-23T20:06:23.752Z,1.85
2022-08-23T20:09:28.733Z,1.30
2022-08-23T20:12:32.207Z,1.17
2022-08-23T20:15:34.234Z,1.10
2022-08-23T20:18:36.013Z,1.33
2022-08-23T20:21:39.589Z,1.30
2022-08-23T20:24:50.961Z,1.10
2022-08-23T20:27:53.817Z,1.30
2022-08-23T20:30:56.097Z,1.08
2022-08-23T20:33:57.976Z,1.45
2022-08-23T20:37:00.102Z,1.02
2022-08-23T20:40:03.686Z,1.05
2022-08-23T20:43:05.819Z,1.73
2022-08-23T20:46:09.016Z,1.50
2022-08-23T20:52:13.641Z,1.35
2022-08-23T20:55:15.466Z,0.95
2022-08-23T20:58:17.213Z,1.20
2022-08-23T21:01:19.491Z,1.23
2022-08-23T21:04:21.626Z,1.10
2022-08-23T21:07:32.095Z,0.90
2022-08-23T21:10:34.372Z,1.00
2022-08-23T21:13:36.391Z,0.90
2022-08-23T21:16:39.146Z,0.80
2022-08-23T21:19:41.021Z,1.27
2022-08-23T21:22:42.820Z,1.05
2022-08-23T21:25:44.682Z,1.02
2022-08-23T21:28:46.585Z,1.20
2022-08-23T21:31:48.878Z,1.00
2022-08-23T21:34:51.175Z,1.15
2022-08-23T21:37:52.961Z,0.80
2022-08-23T21:41:00.288Z,1.10
2022-08-23T21:44:03.705Z,0.90
2022-08-23T21:47:05.482Z,0.98
2022-08-23T21:50:08.194Z,0.98
2022-08-23T21:53:10.209Z,1.10
2022-08-23T21:56:12.380Z,0.90
2022-08-23T21:59:16.736Z,0.73
2022-08-23T22:02:19.202Z,1.20
2022-08-23T22:08:23.790Z,1.05
2022-08-23T22:11:25.733Z,0.80
2022-08-23T22:14:31.581Z,0.98
2022-08-23T22:17:33.813Z,0.90
2022-08-23T22:20:36.078Z,1.00
2022-08-23T22:23:41.935Z,1.00
2022-08-23T22:26:44.851Z,1.02
2022-08-23T22:29:46.789Z,0.95
2022-08-23T22:32:49.877Z,1.17
2022-08-23T22:35:52.388Z,1.13
2022-08-23T22:38:54.124Z,1.00
2022-08-23T22:41:55.937Z,1.08
2022-08-23T22:44:58.410Z,1.10
2022-08-23T22:48:00.704Z,1.00
2022-08-23T22:51:07.057Z,1.02
2022-08-23T22:54:10.676Z,1.20
2022-08-23T22:57:12.411Z,1.23
2022-08-23T23:00:16.244Z,1.33
2022-08-23T23:03:18.373Z,1.20
2022-08-23T23:06:20.679Z,1.27
2022-08-23T23:09:22.988Z,1.40
2022-08-23T23:12:26.473Z,1.40
2022-08-23T23:15:28.240Z,1.30
2022-08-23T23:18:30.056Z,1.50
2022-08-23T23:21:37.506Z,1.38
2022-08-23T23:24:40.130Z,1.20
2022-08-23T23:27:41.831Z,1.15
2022-08-23T23:30:45.530Z,1.48
2022-08-23T23:33:47.503Z,2.10
2022-08-23T23:36:49.377Z,1.52
2022-08-23T23:39:51.249Z,1.60
2022-08-23T23:42:53.558Z,1.35
2022-08-23T23:45:55.542Z,1.40
2022-08-23T23:48:57.993Z,1.40
2022-08-23T23:51:59.895Z,1.47
2022-08-23T23:55:03.652Z,1.50
2022-08-23T23:58:05.402Z,1.40
